createdAt,value
2019-05-07T00:02:32.025Z,99347.93
2019-05-07T00:05:02.748Z,99347.83
2019-05-07T00:07:33.596Z,99339.27
2019-05-07T00:10:04.505Z,99340.29
2019-05-07T00:12:35.286Z,99339.40
2019-05-07T00:15:06.515Z,99343.85
2019-05-07T00:17:37.311Z,99345.02
2019-05-07T00:20:08.937Z,99342.59
2019-05-07T00:22:41.820Z,99345.80
2019-05-07T00:25:13.945Z,99351.92
2019-05-07T00:27:44.677Z,99345.94
2019-05-07T00:30:15.541Z,99347.72
2019-05-07T00:32:46.311Z,99344.12
2019-05-07T00:35:19.688Z,99339.40
2019-05-07T00:37:56.236Z,99345.02
2019-05-07T00:40:45.947Z,99344.66
2019-05-07T00:43:19.554Z,99353.34
2019-05-07T00:45:56.709Z,99353.87
2019-05-07T00:48:26.451Z,99354.38
2019-05-07T00:51:16.060Z,99347.34
2019-05-07T00:53:47.074Z,99346.31
2019-05-07T00:56:18.039Z,99347.36
2019-05-07T00:58:48.946Z,99349.25
2019-05-07T01:01:19.818Z,99348.45
2019-05-07T01:03:53.184Z,99353.15
2019-05-07T01:06:26.428Z,99352.10
2019-05-07T01:08:55.655Z,99356.93
2019-05-07T01:11:26.512Z,99358.32
2019-05-07T01:13:57.314Z,99361.54
2019-05-07T01:16:28.099Z,99360.64
2019-05-07T01:18:58.787Z,99358.09
2019-05-07T01:21:29.733Z,99365.88
2019-05-07T01:24:02.977Z,99357.84
2019-05-07T01:26:33.218Z,99355.30
2019-05-07T01:29:23.883Z,99356.24
2019-05-07T01:32:00.233Z,99354.47
2019-05-07T01:34:42.821Z,99361.37
2019-05-07T01:37:13.056Z,99361.78
2019-05-07T01:39:43.608Z,99372.00
2019-05-07T01:42:14.531Z,99372.18
2019-05-07T01:44:45.245Z,99369.04
2019-05-07T01:47:16.046Z,99377.55
2019-05-07T01:49:46.998Z,99377.09
2019-05-07T01:52:17.836Z,99378.56
2019-05-07T01:54:48.756Z,99374.39
2019-05-07T01:57:19.608Z,99363.79
2019-05-07T01:59:52.566Z,99373.80
2019-05-07T02:02:37.240Z,99371.91
2019-05-07T02:05:16.854Z,99367.10
2019-05-07T02:07:53.609Z,99369.27
2019-05-07T02:10:34.317Z,99363.16
2019-05-07T02:13:05.500Z,99362.64
2019-05-07T02:15:36.299Z,99361.48
2019-05-07T02:18:16.134Z,99364.83
2019-05-07T02:20:47.003Z,99364.05
2019-05-07T02:23:17.924Z,99359.86
2019-05-07T02:25:48.827Z,99361.69
2019-05-07T02:28:19.658Z,99360.06
2019-05-07T02:30:53.315Z,99356.73
2019-05-07T02:33:23.207Z,99360.63
2019-05-07T02:35:54.292Z,99360.02
2019-05-07T02:38:34.627Z,99366.41
2019-05-07T02:41:16.746Z,99363.22
2019-05-07T02:43:47.482Z,99364.09
2019-05-07T02:46:37.140Z,99365.39
2019-05-07T02:49:15.919Z,99368.97
2019-05-07T02:51:54.014Z,99366.38
2019-05-07T02:54:32.588Z,99365.74
2019-05-07T02:57:03.132Z,99364.33
2019-05-07T02:59:34.096Z,99369.30
2019-05-07T03:02:05.119Z,99363.52
2019-05-07T03:04:35.760Z,99361.98
2019-05-07T03:07:06.337Z,99369.41
2019-05-07T03:09:36.946Z,99371.74
2019-05-07T03:12:07.689Z,99365.70
2019-05-07T03:14:38.290Z,99365.56
2019-05-07T03:17:08.920Z,99370.83
2019-05-07T03:19:43.010Z,99369.02
2019-05-07T03:22:14.063Z,99366.45
2019-05-07T03:24:56.034Z,99356.09
2019-05-07T03:27:26.819Z,99362.31
2019-05-07T03:30:04.457Z,99373.69
2019-05-07T03:32:40.692Z,99370.62
2019-05-07T03:35:27.390Z,99374.34
2019-05-07T03:37:56.003Z,99377.92
2019-05-07T03:40:27.138Z,99376.64
2019-05-07T03:43:01.625Z,99373.45
2019-05-07T03:45:46.096Z,99373.16
2019-05-07T03:48:18.508Z,99386.38
2019-05-07T03:50:49.286Z,99376.23
2019-05-07T03:53:22.726Z,99378.28
2019-05-07T03:55:53.670Z,99377.78
2019-05-07T03:58:24.994Z,99380.45
2019-05-07T04:00:55.557Z,99382.45
2019-05-07T04:03:26.242Z,99383.70
2019-05-07T04:05:56.904Z,99394.06
2019-05-07T04:08:27.739Z,99396.05
2019-05-07T04:10:58.492Z,99389.48
2019-05-07T04:13:29.171Z,99397.06
2019-05-07T04:15:59.935Z,99396.57
2019-05-07T04:18:32.952Z,99402.27
2019-05-07T04:21:04.039Z,99404.77
2019-05-07T04:23:34.914Z,99402.28
2019-05-07T04:26:13.496Z,99399.34
2019-05-07T04:28:53.709Z,99398.42
2019-05-07T04:31:24.304Z,99400.64
2019-05-07T04:33:57.157Z,99408.91
2019-05-07T04:36:30.048Z,99417.02
2019-05-07T04:39:03.099Z,99407.21
2019-05-07T04:41:33.281Z,99412.59
2019-05-07T04:44:04.163Z,99410.59
2019-05-07T04:46:34.719Z,99410.92
2019-05-07T04:49:05.653Z,99419.92
2019-05-07T04:51:55.283Z,99417.41
2019-05-07T04:54:25.836Z,99420.96
2019-05-07T04:56:56.678Z,99425.12
2019-05-07T04:59:27.193Z,99429.48
2019-05-07T05:02:04.515Z,99428.48
2019-05-07T05:04:35.584Z,99434.61
2019-05-07T05:07:06.210Z,99434.08
2019-05-07T05:09:37.178Z,99431.19
2019-05-07T05:12:07.910Z,99439.99
2019-05-07T05:14:38.775Z,99443.29
2019-05-07T05:17:09.486Z,99446.81
2019-05-07T05:19:40.136Z,99444.84
2019-05-07T05:22:31.736Z,99447.86
2019-05-07T05:25:22.751Z,99446.84
2019-05-07T05:27:53.588Z,99447.66
2019-05-07T05:30:43.421Z,99452.98
2019-05-07T05:33:14.411Z,99448.53
2019-05-07T05:35:45.160Z,99459.03
2019-05-07T05:38:15.839Z,99466.95
2019-05-07T05:40:46.447Z,99462.02
2019-05-07T05:43:24.618Z,99461.97
2019-05-07T05:45:59.446Z,99457.54
2019-05-07T05:48:30.204Z,99458.73
2019-05-07T05:51:19.594Z,99457.38
2019-05-07T05:53:58.767Z,99461.52
2019-05-07T05:56:38.814Z,99461.93
2019-05-07T05:59:25.323Z,99466.06
2019-05-07T06:02:08.797Z,99460.10
2019-05-07T06:04:58.420Z,99463.61
2019-05-07T06:07:35.308Z,99457.26
2019-05-07T06:10:22.969Z,99465.89
2019-05-07T06:13:03.795Z,99461.58
2019-05-07T06:15:53.296Z,99461.23
2019-05-07T06:18:42.760Z,99469.73
2019-05-07T06:21:32.302Z,99457.34
2019-05-07T06:24:05.425Z,99462.77
2019-05-07T06:26:35.937Z,99449.82
2019-05-07T06:29:06.863Z,99459.31
2019-05-07T06:31:37.684Z,99460.41
2019-05-07T06:34:08.377Z,99461.67
2019-05-07T06:36:42.414Z,99461.89
2019-05-07T06:39:23.269Z,99463.59
2019-05-07T06:42:12.792Z,99467.44
2019-05-07T06:44:44.397Z,99464.50
2019-05-07T06:47:14.954Z,99473.39
2019-05-07T06:49:45.608Z,99474.72
2019-05-07T06:52:16.238Z,99475.66
2019-05-07T06:54:47.035Z,99479.63
2019-05-07T06:57:17.830Z,99479.10
2019-05-07T06:59:53.180Z,99471.59
2019-05-07T07:02:38.150Z,99482.02
2019-05-07T07:05:29.322Z,99476.59
2019-05-07T07:08:04.554Z,99476.50
2019-05-07T07:10:54.055Z,99482.52
2019-05-07T07:13:25.937Z,99489.78
2019-05-07T07:15:56.609Z,99475.92
2019-05-07T07:18:27.201Z,99477.77
2019-05-07T07:20:57.820Z,99484.91
2019-05-07T07:23:28.545Z,99488.91
2019-05-07T07:25:59.261Z,99485.75
2019-05-07T07:28:29.840Z,99490.67
2019-05-07T07:31:19.388Z,99484.78
2019-05-07T07:33:52.608Z,99488.59
2019-05-07T07:36:25.019Z,99483.32
2019-05-07T07:38:55.716Z,99481.11
2019-05-07T07:41:33.176Z,99480.25
2019-05-07T07:44:03.972Z,99482.22
2019-05-07T07:46:34.520Z,99485.08
2019-05-07T07:49:10.996Z,99482.39
2019-05-07T07:51:42.185Z,99482.69
2019-05-07T07:54:10.252Z,99483.73
2019-05-07T07:56:52.286Z,99473.77
2019-05-07T07:59:39.068Z,99479.91
2019-05-07T08:02:22.968Z,99472.96
2019-05-07T08:04:54.087Z,99476.98
2019-05-07T08:07:24.854Z,99472.52
2019-05-07T08:09:55.379Z,99476.80
2019-05-07T08:12:25.915Z,99476.66
2019-05-07T08:15:13.406Z,99468.91
2019-05-07T08:17:29.917Z,99466.55
2019-05-07T08:20:02.529Z,99464.77
2019-05-07T08:22:33.118Z,99458.22
2019-05-07T08:25:05.386Z,99472.45
2019-05-07T08:27:36.290Z,99462.97
2019-05-07T08:30:09.325Z,99461.17
2019-05-07T08:32:50.318Z,99462.25
2019-05-07T08:35:28.430Z,99457.31
2019-05-07T08:37:59.094Z,99450.25
2019-05-07T08:40:29.849Z,99457.85
2019-05-07T08:43:00.599Z,99452.83
2019-05-07T08:45:52.440Z,99458.09
2019-05-07T08:48:28.094Z,99453.23
2019-05-07T08:50:58.729Z,99451.17
2019-05-07T08:53:29.333Z,99458.16
2019-05-07T08:56:00.267Z,99463.56
2019-05-07T08:58:31.760Z,99464.28
2019-05-07T09:01:03.080Z,99455.84
2019-05-07T09:03:43.375Z,99453.15
2019-05-07T09:06:17.291Z,99462.50
2019-05-07T09:08:48.029Z,99470.89
2019-05-07T09:11:18.829Z,99470.03
2019-05-07T09:13:49.433Z,99448.45
2019-05-07T09:16:20.118Z,99452.80
2019-05-07T09:18:52.510Z,99438.75
2019-05-07T09:21:23.652Z,99446.20
2019-05-07T09:23:54.539Z,99439.45
2019-05-07T09:26:32.442Z,99434.50
2019-05-07T09:29:11.817Z,99444.64
2019-05-07T09:32:03.048Z,99437.28
2019-05-07T09:34:38.082Z,99441.42
2019-05-07T09:37:12.444Z,99440.70
2019-05-07T09:39:43.447Z,99439.05
2019-05-07T09:42:14.436Z,99434.86
2019-05-07T09:44:45.380Z,99429.72
2019-05-07T09:47:16.265Z,99437.77
2019-05-07T09:50:00.420Z,99442.78
2019-05-07T09:52:22.666Z,99444.21
2019-05-07T09:54:52.825Z,99439.63
2019-05-07T09:57:30.986Z,99443.03
2019-05-07T09:59:56.508Z,99439.41
2019-05-07T10:02:27.589Z,99442.17
2019-05-07T10:04:58.644Z,99434.32
2019-05-07T10:07:29.569Z,99442.92
2019-05-07T10:10:02.937Z,99445.66
2019-05-07T10:12:44.320Z,99437.66
2019-05-07T10:15:17.426Z,99439.81
2019-05-07T10:17:56.469Z,99444.77
2019-05-07T10:20:27.631Z,99437.21
2019-05-07T10:22:58.380Z,99437.23
2019-05-07T10:25:38.745Z,99434.48
2019-05-07T10:28:09.950Z,99437.77
2019-05-07T10:30:42.670Z,99440.80
2019-05-07T10:33:13.048Z,99449.56
2019-05-07T10:35:43.871Z,99442.77
2019-05-07T10:38:15.100Z,99436.59
2019-05-07T10:40:46.415Z,99447.73
2019-05-07T10:43:17.156Z,99448.77
2019-05-07T10:46:06.498Z,99442.55
2019-05-07T10:48:43.852Z,99446.27
2019-05-07T10:51:14.519Z,99441.77
2019-05-07T10:53:45.404Z,99441.23
2019-05-07T10:56:17.093Z,99440.33
2019-05-07T10:58:48.894Z,99443.80
2019-05-07T11:01:25.334Z,99445.97
2019-05-07T11:03:56.881Z,99452.64
2019-05-07T11:06:28.094Z,99444.61
2019-05-07T11:08:59.700Z,99447.77
2019-05-07T11:11:31.888Z,99442.05
2019-05-07T11:14:02.757Z,99442.06
2019-05-07T11:16:38.693Z,99442.17
2019-05-07T11:19:12.741Z,99442.07
2019-05-07T11:21:43.303Z,99442.72
2019-05-07T11:24:13.966Z,99434.41
2019-05-07T11:26:44.604Z,99443.25
2019-05-07T11:29:15.099Z,99442.11
2019-05-07T11:31:45.713Z,99443.01
2019-05-07T11:34:16.212Z,99443.55
2019-05-07T11:36:46.908Z,99434.55
2019-05-07T11:39:17.646Z,99434.97
2019-05-07T11:42:07.083Z,99437.09
2019-05-07T11:44:37.928Z,99434.61
2019-05-07T11:47:22.521Z,99427.73
2019-05-07T11:50:14.814Z,99433.12
2019-05-07T11:52:51.770Z,99426.70
2019-05-07T11:55:22.511Z,99425.76
2019-05-07T11:57:54.258Z,99436.52
2019-05-07T12:00:33.908Z,99441.25
2019-05-07T12:03:04.587Z,99431.66
2019-05-07T12:05:36.086Z,99436.17
2019-05-07T12:08:07.447Z,99438.63
2019-05-07T12:10:38.564Z,99435.06
2019-05-07T12:13:09.821Z,99431.52
2019-05-07T12:15:42.714Z,99432.16
2019-05-07T12:18:13.428Z,99434.01
2019-05-07T12:20:44.967Z,99438.06
2019-05-07T12:23:15.923Z,99431.63
2019-05-07T12:25:47.009Z,99429.75
2019-05-07T12:28:18.110Z,99428.69
2019-05-07T12:31:03.753Z,99426.02
2019-05-07T12:33:53.393Z,99423.25
2019-05-07T12:36:24.226Z,99428.81
2019-05-07T12:38:54.960Z,99425.14
2019-05-07T12:41:34.286Z,99430.30
2019-05-07T12:44:08.795Z,99421.79
2019-05-07T12:46:42.318Z,99421.42
2019-05-07T12:49:12.936Z,99420.18
2019-05-07T12:52:02.522Z,99420.72
2019-05-07T12:54:52.447Z,99424.67
2019-05-07T12:57:24.268Z,99421.98
2019-05-07T12:59:55.193Z,99414.17
2019-05-07T13:02:45.063Z,99418.38
2019-05-07T13:05:16.256Z,99418.20
2019-05-07T13:07:53.204Z,99413.28
2019-05-07T13:10:24.245Z,99418.44
2019-05-07T13:12:55.296Z,99416.31
2019-05-07T13:15:28.018Z,99409.48
2019-05-07T13:17:59.259Z,99416.23
2019-05-07T13:20:32.045Z,99410.07
2019-05-07T13:23:02.707Z,99405.43
2019-05-07T13:25:34.108Z,99406.95
2019-05-07T13:28:05.163Z,99411.82
2019-05-07T13:30:36.261Z,99415.08
2019-05-07T13:33:07.299Z,99404.53
2019-05-07T13:35:38.997Z,99410.80
2019-05-07T13:38:28.977Z,99408.97
2019-05-07T13:41:19.273Z,99411.66
2019-05-07T13:44:06.251Z,99409.22
2019-05-07T13:46:38.478Z,99406.22
2019-05-07T13:49:09.787Z,99409.46
2019-05-07T13:51:41.832Z,99412.59
2019-05-07T13:54:12.944Z,99404.95
2019-05-07T13:56:44.180Z,99416.28
2019-05-07T13:59:15.708Z,99419.46
2019-05-07T14:01:56.453Z,99416.37
2019-05-07T14:04:27.302Z,99412.38
2019-05-07T14:07:01.944Z,99416.78
2019-05-07T14:09:33.192Z,99414.05
2019-05-07T14:12:04.152Z,99413.49
2019-05-07T14:14:37.679Z,99406.17
2019-05-07T14:17:08.553Z,99406.86
2019-05-07T14:19:39.217Z,99402.41
2019-05-07T14:22:18.002Z,99397.13
2019-05-07T14:24:43.095Z,99407.39
2019-05-07T14:27:13.885Z,99396.59
2019-05-07T14:29:44.869Z,99401.41
2019-05-07T14:32:28.815Z,99401.47
2019-05-07T14:35:15.547Z,99399.16
2019-05-07T14:37:52.249Z,99405.15
2019-05-07T14:40:25.181Z,99404.50
2019-05-07T14:43:03.526Z,99411.47
2019-05-07T14:45:34.870Z,99415.05
2019-05-07T14:48:05.670Z,99418.45
2019-05-07T14:50:36.686Z,99416.63
2019-05-07T14:53:08.800Z,99424.63
2019-05-07T14:55:45.791Z,99427.72
2019-05-07T14:58:20.013Z,99422.66
2019-05-07T15:00:51.869Z,99429.98
2019-05-07T15:03:22.978Z,99432.62
2019-05-07T15:05:54.071Z,99429.98
2019-05-07T15:08:25.056Z,99435.47
2019-05-07T15:10:55.959Z,99424.33
2019-05-07T15:13:28.731Z,99423.52
2019-05-07T15:16:03.096Z,99425.18
2019-05-07T15:18:53.044Z,99419.38
2019-05-07T15:21:27.984Z,99416.21
2019-05-07T15:23:58.986Z,99409.12
2019-05-07T15:26:29.933Z,99421.12
2019-05-07T15:29:12.122Z,99414.37
2019-05-07T15:32:03.349Z,99418.00
2019-05-07T15:34:34.868Z,99415.08
2019-05-07T15:37:05.789Z,99416.17
2019-05-07T15:39:36.747Z,99416.98
2019-05-07T15:42:08.014Z,99416.30
2019-05-07T15:44:38.798Z,99417.13
2019-05-07T15:47:14.480Z,99407.72
2019-05-07T15:49:45.107Z,99411.53
2019-05-07T15:52:34.774Z,99411.16
2019-05-07T15:55:09.212Z,99399.28
2019-05-07T15:57:40.445Z,99400.28
2019-05-07T16:00:14.271Z,99401.34
2019-05-07T16:02:47.783Z,99407.54
2019-05-07T16:05:19.944Z,99403.20
2019-05-07T16:07:51.288Z,99408.83
2019-05-07T16:10:23.433Z,99403.48
2019-05-07T16:12:54.675Z,99410.34
2019-05-07T16:15:25.745Z,99410.05
2019-05-07T16:18:02.917Z,99411.58
2019-05-07T16:20:35.339Z,99408.09
2019-05-07T16:23:14.802Z,99400.74
2019-05-07T16:25:39.458Z,99405.98
2019-05-07T16:28:15.217Z,99402.25
2019-05-07T16:30:44.382Z,99397.80
2019-05-07T16:33:15.754Z,99403.31
2019-05-07T16:35:47.579Z,99400.48
2019-05-07T16:38:18.270Z,99396.55
2019-05-07T16:40:49.671Z,99403.61
2019-05-07T16:43:21.986Z,99400.95
2019-05-07T16:45:52.764Z,99400.80
2019-05-07T16:48:23.474Z,99404.69
2019-05-07T16:50:55.609Z,99407.92
2019-05-07T16:53:30.203Z,99405.52
2019-05-07T16:56:02.897Z,99405.77
2019-05-07T16:58:42.788Z,99405.93
2019-05-07T17:01:14.077Z,99399.88
2019-05-07T17:03:56.214Z,99395.83
2019-05-07T17:06:26.908Z,99394.62
2019-05-07T17:09:13.208Z,99400.73
2019-05-07T17:11:46.552Z,99395.03
2019-05-07T17:14:18.346Z,99401.88
2019-05-07T17:16:51.585Z,99404.66
2019-05-07T17:19:22.519Z,99403.61
2019-05-07T17:21:53.871Z,99403.89
2019-05-07T17:24:29.281Z,99403.12
2019-05-07T17:27:02.371Z,99401.38
2019-05-07T17:29:37.141Z,99401.53
2019-05-07T17:32:08.828Z,99399.16
2019-05-07T17:34:43.257Z,99399.28
2019-05-07T17:37:17.969Z,99401.97
2019-05-07T17:39:52.251Z,99401.48
2019-05-07T17:42:22.867Z,99401.05
2019-05-07T17:44:58.083Z,99405.62
2019-05-07T17:47:29.360Z,99412.99
2019-05-07T17:50:06.331Z,99405.06
2019-05-07T17:52:41.823Z,99405.67
2019-05-07T17:55:13.591Z,99416.34
2019-05-07T17:57:47.363Z,99415.14
2019-05-07T18:00:22.062Z,99413.07
2019-05-07T18:03:15.401Z,99419.20
2019-05-07T18:05:46.254Z,99415.14
2019-05-07T18:08:17.556Z,99421.03
2019-05-07T18:10:52.029Z,99414.37
2019-05-07T18:13:23.061Z,99419.72
2019-05-07T18:15:59.622Z,99416.28
2019-05-07T18:18:33.748Z,99417.00
2019-05-07T18:21:07.806Z,99420.51
2019-05-07T18:23:42.625Z,99422.33
2019-05-07T18:26:29.784Z,99424.21
2019-05-07T18:28:49.077Z,99424.69
2019-05-07T18:31:27.669Z,99432.69
2019-05-07T18:34:00.083Z,99427.89
2019-05-07T18:36:37.799Z,99425.41
2019-05-07T18:39:10.122Z,99429.23
2019-05-07T18:41:41.788Z,99427.99
2019-05-07T18:44:15.983Z,99429.22
2019-05-07T18:46:48.090Z,99423.11
2019-05-07T18:49:22.703Z,99427.73
2019-05-07T18:52:03.026Z,99419.28
2019-05-07T18:54:34.376Z,99428.64
2019-05-07T18:57:10.197Z,99427.14
2019-05-07T18:59:44.356Z,99427.77
2019-05-07T19:02:15.944Z,99430.47
2019-05-07T19:04:47.929Z,99427.81
2019-05-07T19:07:22.811Z,99427.95
2019-05-07T19:09:56.993Z,99428.50
2019-05-07T19:12:32.743Z,99429.73
2019-05-07T19:15:08.761Z,99430.74
2019-05-07T19:17:50.830Z,99429.69
2019-05-07T19:20:27.069Z,99426.06
2019-05-07T19:23:02.691Z,99432.88
2019-05-07T19:25:36.299Z,99433.53
2019-05-07T19:28:14.372Z,99430.77
2019-05-07T19:30:46.191Z,99433.16
2019-05-07T19:33:26.736Z,99433.38
2019-05-07T19:35:58.803Z,99434.08
2019-05-07T19:38:32.366Z,99429.03
2019-05-07T19:41:08.618Z,99432.33
2019-05-07T19:43:46.687Z,99431.69
2019-05-07T19:46:22.851Z,99426.50
2019-05-07T19:49:02.750Z,99425.11
2019-05-07T19:54:28.613Z,99436.61
2019-05-07T19:57:03.980Z,99429.45
2019-05-07T19:59:42.885Z,99425.03
2019-05-07T20:02:17.611Z,99428.16
2019-05-07T20:04:55.863Z,99422.59
2019-05-07T20:07:28.308Z,99430.06
2019-05-07T20:10:02.728Z,99417.73
2019-05-07T20:12:38.162Z,99422.07
2019-05-07T20:15:22.383Z,99422.56
2019-05-07T20:17:57.998Z,99425.73
2019-05-07T20:20:35.435Z,99425.59
2019-05-07T20:23:09.425Z,99425.67
2019-05-07T20:25:52.763Z,99420.66
2019-05-07T20:28:24.186Z,99419.88
2019-05-07T20:30:56.388Z,99425.54
2019-05-07T20:33:33.333Z,99426.34
2019-05-07T20:36:09.895Z,99430.23
2019-05-07T20:38:47.809Z,99435.41
2019-05-07T20:41:24.251Z,99433.66
2019-05-07T20:44:00.074Z,99428.82
2019-05-07T20:46:31.965Z,99423.97
2019-05-07T20:49:03.182Z,99423.32
2019-05-07T20:51:35.268Z,99425.24
2019-05-07T20:54:22.703Z,99422.41
2019-05-07T20:56:58.905Z,99428.03
2019-05-07T20:59:32.752Z,99425.97
2019-05-07T21:02:05.543Z,99427.78
2019-05-07T21:04:36.543Z,99425.71
2019-05-07T21:07:11.576Z,99423.06
2019-05-07T21:09:42.298Z,99430.89
2019-05-07T21:12:13.245Z,99426.53
2019-05-07T21:14:45.260Z,99426.66
2019-05-07T21:17:16.621Z,99432.70
2019-05-07T21:20:07.863Z,99430.76
2019-05-07T21:22:42.442Z,99434.48
2019-05-07T21:25:14.516Z,99429.63
2019-05-07T21:27:45.432Z,99433.44
2019-05-07T21:30:17.628Z,99428.08
2019-05-07T21:32:48.521Z,99431.14
2019-05-07T21:35:19.394Z,99431.64
2019-05-07T21:37:52.402Z,99427.19
2019-05-07T21:40:23.193Z,99423.84
2019-05-07T21:42:53.976Z,99423.22
2019-05-07T21:45:43.868Z,99422.97
2019-05-07T21:48:15.273Z,99424.62
2019-05-07T21:50:46.760Z,99420.66
2019-05-07T21:53:23.399Z,99423.22
2019-05-07T21:56:05.136Z,99416.04
2019-05-07T21:58:48.119Z,99414.52
2019-05-07T22:01:23.344Z,99419.38
2019-05-07T22:03:55.133Z,99416.70
2019-05-07T22:06:26.010Z,99418.61
2019-05-07T22:08:56.871Z,99421.94
2019-05-07T22:11:27.863Z,99423.47
2019-05-07T22:13:58.623Z,99419.01
2019-05-07T22:16:29.348Z,99423.72
2019-05-07T22:19:02.523Z,99428.22
2019-05-07T22:21:34.237Z,99430.90
2019-05-07T22:24:05.359Z,99423.97
2019-05-07T22:26:36.213Z,99426.77
2019-05-07T22:29:07.076Z,99429.79
2019-05-07T22:31:56.789Z,99429.25
2019-05-07T22:35:05.787Z,99421.39
2019-05-07T22:37:36.696Z,99420.38
2019-05-07T22:40:08.353Z,99420.13
2019-05-07T22:42:39.186Z,99426.78
2019-05-07T22:45:12.137Z,99418.11
2019-05-07T22:47:43.173Z,99418.23
2019-05-07T22:50:15.844Z,99420.91
2019-05-07T22:52:46.743Z,99419.64
2019-05-07T22:55:17.639Z,99425.02
2019-05-07T22:57:56.317Z,99423.88
2019-05-07T23:00:35.378Z,99419.25
2019-05-07T23:03:06.293Z,99416.82
2019-05-07T23:05:37.077Z,99418.73
2019-05-07T23:08:07.872Z,99419.63
2019-05-07T23:10:38.886Z,99416.81
2019-05-07T23:13:09.633Z,99418.48
2019-05-07T23:15:40.264Z,99408.38
2019-05-07T23:18:13.044Z,99415.67
2019-05-07T23:20:43.850Z,99409.65
2019-05-07T23:23:14.463Z,99403.99
2019-05-07T23:25:45.293Z,99407.46
2019-05-07T23:28:16.139Z,99407.20
2019-05-07T23:30:46.928Z,99404.84
2019-05-07T23:33:17.950Z,99400.77
2019-05-07T23:35:48.789Z,99400.02
2019-05-07T23:38:19.608Z,99405.98
2019-05-07T23:41:09.219Z,99404.70
2019-05-07T23:43:42.355Z,99406.35
2019-05-07T23:46:12.922Z,99402.27
2019-05-07T23:48:43.761Z,99403.29
2019-05-07T23:51:14.562Z,99396.53
2019-05-07T23:53:45.363Z,99396.17
2019-05-07T23:56:16.328Z,99400.88
2019-05-07T23:58:47.058Z,99399.36
